Time;durP1;ratioP1;P1;durP2;ratioP2;P2;SDS_P1;SDS_P2;PMS_P1;PMS_P2;Temp;Humidity;BMP_temperature;BMP_pressure;BME280_temperature;BME280_humidity;BME280_pressure;Samples;Min_cycle;Max_cycle;Signal;HPM_P1;HPM_P2
2021/03/22 00:00:00;;;;;;;14.30;10.07;;;3.10;73.20;;;0.99;73.16;96091.53;4935594;28;20534;-69
2021/03/22 00:02:26;;;;;;;16.25;10.48;;;3.10;73.60;;;0.98;72.66;96088.13;4901871;29;20130;-69
2021/03/22 00:04:51;;;;;;;17.63;10.35;;;3.00;74.00;;;0.97;73.23;96083.88;4938790;28;20041;-69
2021/03/22 00:07:17;;;;;;;14.48;10.13;;;3.10;73.80;;;0.97;72.77;96081.28;4947835;28;20035;-68
2021/03/22 00:09:43;;;;;;;16.25;10.30;;;3.10;74.00;;;0.97;72.99;96094.25;4950869;28;20070;-69
2021/03/22 00:12:09;;;;;;;16.48;10.65;;;3.10;74.00;;;0.96;73.22;96084.84;4945994;29;20035;-69
2021/03/22 00:14:35;;;;;;;15.30;10.45;;;3.10;74.10;;;0.95;73.17;96085.78;4937018;28;20038;-69
2021/03/22 00:17:01;;;;;;;14.00;10.68;;;3.00;74.20;;;0.95;73.57;96078.00;4930743;28;20081;-68
2021/03/22 00:19:29;;;;;;;16.15;10.60;;;3.00;74.40;;;0.94;73.73;96072.97;4935787;28;20062;-68
2021/03/22 00:21:55;;;;;;;16.60;10.88;;;2.90;74.80;;;0.91;73.22;96079.22;4921407;28;20035;-69
2021/03/22 00:24:21;;;;;;;14.27;10.43;;;2.80;75.30;;;0.89;73.81;96070.75;4949695;28;20510;-69
2021/03/22 00:26:46;;;;;;;16.98;10.85;;;2.80;75.30;;;0.88;73.72;96069.09;4935148;28;20045;-69
2021/03/22 00:29:12;;;;;;;18.98;10.43;;;2.80;75.40;;;0.90;73.64;96062.03;4932458;28;20062;-70
2021/03/22 00:31:38;;;;;;;15.40;10.35;;;3.00;75.10;;;0.89;73.33;96066.38;4946886;28;20086;-69
2021/03/22 00:34:04;;;;;;;15.52;10.60;;;2.90;75.10;;;0.90;74.16;96062.84;4950780;28;20101;-69
2021/03/22 00:36:29;;;;;;;16.75;10.63;;;3.00;75.10;;;0.90;73.63;96062.03;4968134;28;20058;-69
2021/03/22 00:38:55;;;;;;;16.58;10.10;;;2.90;75.20;;;0.90;74.24;96068.03;4954474;28;20043;-69
2021/03/22 00:41:23;;;;;;;16.85;11.07;;;3.00;75.10;;;0.89;73.91;96060.38;4967391;28;20042;-69
2021/03/22 00:43:49;;;;;;;17.23;11.02;;;3.00;75.20;;;0.89;73.92;96060.38;4968317;28;20054;-69
2021/03/22 00:46:15;;;;;;;16.10;9.98;;;3.00;75.20;;;0.91;74.39;96058.50;4937976;29;20047;-69
2021/03/22 00:48:40;;;;;;;17.15;11.20;;;3.00;75.00;;;0.91;73.85;96048.16;4947132;28;20541;-69
2021/03/22 00:51:07;;;;;;;17.58;11.13;;;3.00;74.90;;;0.92;73.98;96049.78;4934437;29;20507;-69
2021/03/22 00:53:33;;;;;;;16.48;10.40;;;3.10;74.90;;;0.94;74.48;96053.06;4937868;29;20040;-69
2021/03/22 00:55:59;;;;;;;18.40;10.43;;;3.10;74.80;;;0.94;74.04;96062.63;4932784;29;20046;-69
2021/03/22 00:58:25;;;;;;;14.95;10.35;;;3.00;75.10;;;0.93;74.38;96054.03;4933235;29;20127;-69
2021/03/22 01:00:56;;;;;;;17.42;10.77;;;3.10;75.00;;;0.95;74.94;96057.31;4949735;28;20043;-69
2021/03/22 01:03:32;;;;;;;18.10;11.15;;;3.10;74.80;;;0.95;75.36;96056.47;4931168;29;20578;-68
2021/03/22 01:05:58;;;;;;;16.80;11.02;;;3.10;74.90;;;0.93;73.98;96056.63;4953187;28;20047;-68
2021/03/22 01:08:26;;;;;;;17.33;10.88;;;3.00;75.30;;;0.92;74.75;96049.78;4938996;28;20109;-68
2021/03/22 01:10:56;;;;;;;17.00;10.38;;;3.10;75.00;;;0.93;74.76;96051.44;4923216;29;20063;-69
2021/03/22 01:13:30;;;;;;;17.10;9.88;;;3.00;75.10;;;0.91;75.42;96050.75;4940324;29;20537;-69
2021/03/22 01:15:56;;;;;;;17.35;10.90;;;3.00;75.40;;;0.89;74.82;96045.66;4946499;29;20620;-68
2021/03/22 01:18:25;;;;;;;14.05;10.38;;;3.00;75.50;;;0.92;75.08;96044.63;4942605;28;20031;-69
2021/03/22 01:21:17;;;;;;;18.48;10.93;;;3.10;75.30;;;0.91;76.33;96042.97;4954912;28;20035;-69
2021/03/22 01:23:43;;;;;;;18.23;10.63;;;3.10;75.40;;;0.92;74.69;96047.22;4950705;29;20102;-69
2021/03/22 01:26:10;;;;;;;17.65;10.95;;;3.00;75.40;;;0.93;74.55;96042.84;4937047;28;20046;-69
2021/03/22 01:28:37;;;;;;;17.85;10.73;;;3.00;75.60;;;0.93;74.87;96043.66;4949597;28;20043;-69
2021/03/22 01:31:03;;;;;;;16.63;10.95;;;3.10;75.20;;;0.94;74.62;96036.72;4932277;28;20691;-69
2021/03/22 01:33:34;;;;;;;18.60;11.30;;;3.10;75.20;;;0.94;75.02;96040.13;4935199;28;20039;-69
2021/03/22 01:36:02;;;;;;;16.15;10.07;;;3.10;75.10;;;0.94;75.07;96032.34;4938324;29;20036;-69
2021/03/22 01:38:28;;;;;;;20.65;10.80;;;3.10;75.20;;;0.95;75.10;96041.75;4950777;28;20065;-69
2021/03/22 01:41:18;;;;;;;16.40;10.75;;;3.10;75.20;;;0.98;76.41;96043.28;4957986;28;20031;-68
2021/03/22 01:44:15;;;;;;;18.13;10.38;;;3.10;75.10;;;0.98;76.17;96033.72;4952027;29;20039;-69
2021/03/22 01:46:53;;;;;;;21.10;11.13;;;3.20;75.00;;;1.00;76.05;96037.00;4935079;29;20059;-69
2021/03/22 01:49:19;;;;;;;19.17;10.15;;;3.20;74.90;;;0.99;75.00;96035.38;4946710;28;20040;-69
2021/03/22 01:51:45;;;;;;;16.02;9.77;;;3.30;74.80;;;1.00;74.73;96024.06;4935026;29;20023;-69
2021/03/22 01:54:11;;;;;;;17.33;9.68;;;3.20;74.90;;;1.00;74.71;96021.47;4939437;28;20023;-69
2021/03/22 01:56:54;;;;;;;22.13;11.02;;;3.20;74.90;;;1.01;76.21;96012.75;4937949;28;20486;-69
2021/03/22 01:59:31;;;;;;;21.15;10.48;;;3.20;74.80;;;1.01;76.50;96020.50;4948265;29;20550;-68
2021/03/22 02:02:01;;;;;;;17.17;10.05;;;3.20;74.80;;;1.01;75.93;96019.69;4945249;29;20081;-69
2021/03/22 02:04:28;;;;;;;18.27;9.67;;;3.20;75.00;;;1.00;75.31;96018.88;4945497;29;20035;-69
2021/03/22 02:06:53;;;;;;;21.10;10.05;;;3.10;75.30;;;0.98;75.42;96018.19;4936006;28;20074;-68
2021/03/22 02:09:19;;;;;;;17.77;9.70;;;3.10;75.50;;;0.99;74.75;96019.81;4934381;28;20490;-68
2021/03/22 02:11:45;;;;;;;18.90;9.77;;;3.10;75.60;;;0.98;75.37;96023.38;4933539;28;20043;-69
2021/03/22 02:14:11;;;;;;;18.92;9.48;;;3.10;75.60;;;0.96;75.37;96027.88;4970533;28;20031;-69
2021/03/22 02:16:48;;;;;;;25.33;10.15;;;3.00;75.90;;;0.96;75.74;96030.44;4933827;29;20031;-69
2021/03/22 02:20:18;;;;;;;20.27;8.75;;;3.00;76.00;;;0.97;76.48;96029.50;4951473;28;20039;-69
2021/03/22 02:23:25;;;;;;;22.52;10.20;;;3.00;75.90;;;0.94;76.23;96027.19;4930233;29;20042;-69
2021/03/22 02:26:02;;;;;;;21.88;9.60;;;2.90;76.10;;;0.94;76.39;96037.53;4949903;28;20144;-68
2021/03/22 02:28:55;;;;;;;23.17;9.98;;;2.90;76.10;;;0.95;76.79;96048.72;4927881;28;20553;-69
2021/03/22 02:31:42;;;;;;;21.45;9.65;;;2.90;76.20;;;0.94;75.54;96052.25;4947118;29;20093;-69
2021/03/22 02:34:24;;;;;;;20.80;9.90;;;2.90;76.20;;;0.94;76.03;96053.06;4963651;28;20093;-69
2021/03/22 02:37:15;;;;;;;18.35;9.63;;;2.90;76.10;;;0.90;76.88;96052.50;4950064;28;20089;-68
2021/03/22 02:40:02;;;;;;;22.70;9.85;;;2.80;76.40;;;0.90;76.51;96051.66;4965703;28;20038;-68
2021/03/22 02:42:28;;;;;;;19.92;9.25;;;2.90;76.40;;;0.89;74.90;96057.78;4953611;28;20033;-69
2021/03/22 02:44:54;;;;;;;19.40;9.88;;;2.80;76.40;;;0.87;75.34;96051.94;4947487;28;20146;-68
2021/03/22 02:47:34;;;;;;;17.48;10.23;;;2.80;76.50;;;0.88;75.98;96062.16;4936495;28;20380;-69
2021/03/22 02:50:03;;;;;;;36.67;20.10;;;2.90;76.30;;;0.88;75.52;96053.56;4916327;29;20048;-69
2021/03/22 02:53:00;;;;;;;33.45;15.20;;;2.90;76.40;;;0.88;76.52;96062.16;4918758;29;20133;-69
2021/03/22 02:55:56;;;;;;;24.33;11.43;;;2.90;76.50;;;0.89;77.09;96062.97;4921794;29;20041;-69
2021/03/22 02:58:27;;;;;;;22.77;11.05;;;2.90;76.50;;;0.88;76.24;96071.69;4934493;29;20034;-69
2021/03/22 03:01:07;;;;;;;21.10;10.77;;;2.90;76.80;;;0.88;77.32;96075.09;4948691;28;20042;-69
2021/03/22 03:03:33;;;;;;;25.48;10.45;;;2.80;76.90;;;0.86;76.09;96073.59;4936431;28;20061;-69
2021/03/22 03:05:58;;;;;;;21.17;10.73;;;2.90;77.00;;;0.86;75.75;96071.00;4944259;28;20046;-69
2021/03/22 03:08:34;;;;;;;19.88;10.15;;;2.90;76.70;;;0.86;77.13;96083.97;4936643;28;20105;-68
2021/03/22 03:11:00;;;;;;;19.20;11.27;;;3.00;76.60;;;0.86;75.90;96083.97;4933420;29;20058;-68
2021/03/22 03:13:26;;;;;;;23.02;10.70;;;2.90;76.80;;;0.85;75.98;96085.72;4918332;29;20462;-69
2021/03/22 03:15:52;;;;;;;25.20;11.68;;;2.90;76.90;;;0.85;75.97;96084.91;4933704;29;20031;-68
2021/03/22 03:18:18;;;;;;;21.85;11.07;;;2.80;77.20;;;0.85;76.11;96083.13;4934563;28;20451;-68
2021/03/22 03:20:44;;;;;;;19.17;10.65;;;2.90;77.10;;;0.88;75.68;96087.22;4958525;28;20030;-68
2021/03/22 03:23:09;;;;;;;23.35;11.10;;;2.90;76.80;;;0.89;76.06;96094.06;4936348;28;20049;-69
2021/03/22 03:25:35;;;;;;;20.27;10.27;;;2.90;76.90;;;0.88;75.86;96087.22;4923010;29;20685;-69
2021/03/22 03:28:01;;;;;;;28.42;11.48;;;3.00;76.80;;;0.88;76.13;96087.22;4939975;28;20047;-69
2021/03/22 03:30:30;;;;;;;21.55;10.77;;;3.00;76.70;;;0.87;76.15;96093.38;4921840;29;20059;-68
2021/03/22 03:32:56;;;;;;;21.88;10.90;;;3.00;76.50;;;0.87;76.34;96085.59;4946201;28;20030;-69
2021/03/22 03:35:28;;;;;;;21.80;10.65;;;3.10;76.50;;;0.87;76.52;96073.47;4923222;29;20039;-69
2021/03/22 03:37:54;;;;;;;27.48;11.10;;;3.10;76.40;;;0.86;76.08;96083.97;4936412;28;20115;-69
2021/03/22 03:40:39;;;;;;;25.92;10.88;;;2.90;76.60;;;0.88;76.86;96087.22;4920938;28;20054;-68
2021/03/22 03:43:05;;;;;;;22.58;10.43;;;3.10;76.50;;;0.87;76.36;96099.34;4921774;28;20093;-69
2021/03/22 03:45:34;;;;;;;22.02;9.85;;;2.90;76.50;;;0.89;76.24;96086.28;4939401;29;20039;-69
2021/03/22 03:48:00;;;;;;;24.23;10.32;;;3.00;76.40;;;0.90;76.18;96093.09;4933190;29;20031;-69
2021/03/22 03:50:29;;;;;;;21.45;9.57;;;3.00;76.30;;;0.91;76.72;96090.41;4944045;28;20089;-69
2021/03/22 03:52:55;;;;;;;18.92;9.13;;;3.00;76.10;;;0.91;76.43;96084.41;4952132;28;20050;-69
2021/03/22 03:55:22;;;;;;;19.35;8.32;;;3.10;75.90;;;0.91;75.53;96084.41;4930789;28;20037;-68
2021/03/22 03:57:51;;;;;;;23.67;8.43;;;3.00;75.90;;;0.93;76.18;96084.28;4933372;28;20042;-69
2021/03/22 04:00:47;;;;;;;23.70;8.20;;;3.00;75.90;;;0.92;76.71;96091.22;4933472;29;20507;-69
2021/03/22 04:03:23;;;;;;;23.85;8.43;;;3.00;75.80;;;0.93;76.38;96092.06;4954255;28;20041;-70
2021/03/22 04:06:02;;;;;;;22.38;7.57;;;3.00;75.90;;;0.93;76.46;96092.88;4937264;29;20059;-69
2021/03/22 04:08:29;;;;;;;20.92;8.32;;;3.00;75.90;;;0.94;75.86;96097.09;4932251;29;20057;-69
2021/03/22 04:10:55;;;;;;;20.98;7.80;;;3.10;75.60;;;0.97;75.90;96093.44;4932306;28;20794;-68
2021/03/22 04:13:21;;;;;;;28.02;7.63;;;3.10;75.40;;;0.98;75.99;96090.69;4935138;29;20043;-69
2021/03/22 04:15:47;;;;;;;27.00;7.25;;;3.10;75.30;;;1.01;75.71;96094.81;4945191;28;20127;-68
2021/03/22 04:18:13;;;;;;;20.75;7.47;;;3.20;75.00;;;1.00;75.17;96099.16;4917551;29;20043;-69
2021/03/22 04:20:38;;;;;;;24.95;7.63;;;3.10;75.30;;;0.99;76.16;96102.69;4917811;29;20455;-69
2021/03/22 04:23:04;;;;;;;20.60;7.65;;;3.00;75.40;;;1.00;75.48;96106.09;4936840;29;20125;-69
2021/03/22 04:25:30;;;;;;;25.30;7.25;;;3.10;75.40;;;1.00;75.86;96104.34;4928907;28;20035;-68
2021/03/22 04:27:56;;;;;;;27.60;7.85;;;3.10;75.30;;;1.01;75.67;96108.56;4951601;28;20042;-69
2021/03/22 04:30:22;;;;;;;22.67;7.80;;;3.10;75.10;;;1.02;75.92;96105.03;4941547;29;20032;-69
2021/03/22 04:32:49;;;;;;;23.05;7.88;;;3.10;75.10;;;1.04;75.99;96099.72;4922803;28;20035;-69
2021/03/22 04:35:15;;;;;;;22.95;7.45;;;3.20;74.90;;;1.04;75.40;96097.94;4936659;28;20093;-69
2021/03/22 04:37:40;;;;;;;21.83;6.90;;;3.20;74.60;;;1.04;75.67;96105.72;4954573;28;20042;-69
2021/03/22 04:40:07;;;;;;;26.17;8.13;;;3.10;74.90;;;1.03;75.83;96095.47;4947118;28;20047;-68
2021/03/22 04:42:33;;;;;;;21.95;7.43;;;3.10;75.10;;;1.04;75.64;96099.72;4938993;29;20574;-69
2021/03/22 04:44:59;;;;;;;25.98;8.32;;;3.10;75.30;;;1.03;75.87;96098.91;4905610;29;20032;-69
2021/03/22 04:47:25;;;;;;;23.05;7.72;;;3.10;75.20;;;1.04;75.90;96100.53;4946292;28;20030;-68
2021/03/22 04:49:50;;;;;;;25.92;7.50;;;3.10;75.20;;;1.04;75.29;96090.16;4950936;28;20097;-68
2021/03/22 04:52:16;;;;;;;24.30;7.80;;;3.10;75.20;;;1.04;75.42;96105.72;4938953;28;20046;-69
2021/03/22 04:54:42;;;;;;;19.95;7.15;;;3.10;75.10;;;1.04;75.81;96103.13;4933185;29;20035;-69
2021/03/22 04:57:13;;;;;;;23.73;7.95;;;3.20;75.20;;;1.06;76.47;96109.00;4935986;29;20118;-69
2021/03/22 04:59:39;;;;;;;20.08;7.10;;;3.20;75.30;;;1.06;75.51;96109.00;4942590;29;20039;-69
2021/03/22 05:02:05;;;;;;;19.08;7.18;;;3.10;75.40;;;1.07;75.71;96105.44;4940600;28;20081;-69
2021/03/22 05:04:31;;;;;;;29.60;8.18;;;3.20;75.30;;;1.09;75.68;96107.91;4920164;29;20503;-69
2021/03/22 05:06:57;;;;;;;22.42;7.60;;;3.20;75.20;;;1.09;75.73;96111.31;4920611;29;20177;-69
2021/03/22 05:09:23;;;;;;;23.00;7.45;;;3.30;75.10;;;1.10;75.50;96115.53;4950630;28;20630;-69
2021/03/22 05:11:48;;;;;;;24.00;7.50;;;3.20;75.00;;;1.11;75.19;96122.38;4944033;29;20050;-69
2021/03/22 05:14:15;;;;;;;23.33;7.47;;;3.20;75.10;;;1.13;76.00;96130.00;4948491;28;20158;-69
2021/03/22 05:16:40;;;;;;;20.48;6.75;;;3.30;74.90;;;1.12;75.37;96131.78;4935581;29;20511;-69
2021/03/22 05:19:06;;;;;;;24.42;7.20;;;3.10;75.00;;;1.09;75.91;96134.63;4955177;28;20095;-69
2021/03/22 05:21:32;;;;;;;29.10;7.13;;;3.10;75.40;;;1.08;75.89;96127.81;4938272;29;22227;-69
2021/03/22 05:23:57;;;;;;;22.90;6.15;;;3.10;75.40;;;1.08;75.12;96133.00;4945432;28;20042;-68
2021/03/22 05:26:23;;;;;;;27.83;7.05;;;3.10;75.40;;;1.10;75.81;96131.09;4948163;29;20511;-68
2021/03/22 05:28:49;;;;;;;23.30;7.10;;;3.10;75.40;;;1.09;75.64;96124.25;4935959;28;20040;-69
2021/03/22 05:31:15;;;;;;;22.98;6.97;;;3.10;75.40;;;1.09;75.34;96118.28;4947239;29;20043;-70
2021/03/22 05:33:40;;;;;;;27.05;6.90;;;3.10;75.40;;;1.09;75.18;96123.44;4930873;28;20031;-70
2021/03/22 05:36:06;;;;;;;24.27;6.63;;;3.10;75.40;;;1.10;75.04;96110.38;4941921;28;20427;-69
2021/03/22 05:38:32;;;;;;;24.88;6.97;;;3.10;75.20;;;1.11;75.55;96117.19;4938436;28;20287;-73
2021/03/22 05:41:05;;;;;;;24.52;6.80;;;3.10;75.10;;;1.11;75.63;96127.53;4951068;28;20030;-72
2021/03/22 05:43:49;;;;;;;26.95;7.80;;;3.10;75.10;;;1.13;76.01;96130.84;4949536;28;20076;-67
2021/03/22 05:46:59;;;;;;;31.85;8.77;;;3.20;75.00;;;1.15;76.15;96134.13;4935169;28;20062;-70
2021/03/22 05:49:46;;;;;;;22.23;6.80;;;3.20;74.80;;;1.17;76.34;96137.41;4949216;28;20538;-69
2021/03/22 05:52:52;;;;;;;20.58;6.55;;;3.30;74.90;;;1.20;75.93;96137.16;4944995;28;20049;-69
2021/03/22 05:55:39;;;;;;;23.45;6.13;;;3.20;74.60;;;1.18;76.50;96149.41;4942903;28;20549;-69
2021/03/22 05:58:35;;;;;;;23.80;5.75;;;3.10;75.20;;;1.19;76.26;96151.06;4954974;28;20035;-68
2021/03/22 06:01:28;;;;;;;30.35;6.28;;;3.20;75.30;;;1.21;76.21;96151.75;4955356;28;20473;-68
2021/03/22 06:03:58;;;;;;;24.33;6.00;;;3.20;75.30;;;1.22;75.45;96158.56;4925267;28;20484;-68
2021/03/22 06:06:35;;;;;;;20.92;5.60;;;3.20;74.90;;;1.25;75.56;96151.47;4922559;28;20703;-69
2021/03/22 06:09:16;;;;;;;27.88;6.45;;;3.20;74.70;;;1.27;74.96;96162.53;4939121;28;20039;-68
2021/03/22 06:12:12;;;;;;;25.98;7.97;;;3.30;74.40;;;1.29;75.90;96163.22;4938090;28;20102;-69
2021/03/22 06:14:58;;;;;;;22.98;6.68;;;3.30;74.40;;;1.32;75.44;96165.53;4937697;28;20122;-68
2021/03/22 06:17:52;;;;;;;31.52;11.77;;;3.30;74.40;;;1.37;76.03;96166.81;4958389;28;20057;-68
2021/03/22 06:20:28;;;;;;;40.10;12.55;;;3.50;74.70;;;1.45;75.89;96166.97;4936632;28;20035;-68
2021/03/22 06:23:00;;;;;;;38.47;13.55;;;3.60;75.30;;;1.51;75.33;96165.63;4914023;29;20074;-69
2021/03/22 06:25:31;;;;;;;29.15;6.97;;;3.70;73.50;;;1.53;74.45;96161.13;4933128;28;20031;-68
2021/03/22 06:28:13;;;;;;;25.98;5.90;;;3.70;73.00;;;1.58;75.18;96171.09;4943492;29;20106;-69
2021/03/22 06:30:39;;;;;;;27.77;6.30;;;3.70;72.30;;;1.62;74.37;96172.50;4934532;29;20042;-69
2021/03/22 06:33:05;;;;;;;33.35;7.88;;;3.80;72.40;;;1.68;74.76;96177.13;4923791;29;20028;-69
2021/03/22 06:35:35;;;;;;;25.20;6.63;;;3.90;72.20;;;1.75;74.37;96181.66;4933648;29;20502;-68
2021/03/22 06:38:01;;;;;;;32.13;7.53;;;4.00;71.40;;;1.82;73.88;96180.19;4937113;29;20104;-68
2021/03/22 06:40:27;;;;;;;23.35;6.78;;;4.10;71.30;;;1.91;73.84;96175.16;4949321;28;20042;-69
2021/03/22 06:43:09;;;;;;;22.35;6.07;;;4.20;71.00;;;2.01;73.40;96183.75;4966590;28;20696;-66
2021/03/22 06:45:37;;;;;;;23.30;5.05;;;4.30;70.20;;;2.07;73.59;96188.44;4962056;28;20039;-73
2021/03/22 06:48:13;;;;;;;21.98;4.85;;;4.30;70.30;;;2.17;73.27;96194.44;4956248;28;20094;-66
2021/03/22 06:50:39;;;;;;;20.10;5.03;;;4.50;70.10;;;2.24;73.63;96199.91;4952808;28;20026;-67
2021/03/22 06:53:05;;;;;;;21.05;4.13;;;4.60;69.90;;;2.33;73.77;96207.72;4922814;29;20058;-66
2021/03/22 06:55:40;;;;;;;18.65;5.85;;;4.60;69.40;;;2.41;72.52;96202.66;4933081;29;20116;-69
2021/03/22 06:58:06;;;;;;;25.40;4.25;;;4.70;68.60;;;2.49;73.30;96198.53;4940611;29;20051;-69
2021/03/22 07:00:33;;;;;;;22.73;4.22;;;4.80;68.70;;;2.53;72.64;96205.13;4948051;28;20030;-68
2021/03/22 07:03:01;;;;;;;20.42;4.43;;;4.60;68.30;;;2.56;72.27;96207.44;4933990;28;20589;-68
2021/03/22 07:05:32;;;;;;;26.27;5.28;;;4.70;68.10;;;2.60;71.60;96207.03;4935706;28;20498;-69
2021/03/22 07:08:03;;;;;;;20.70;4.00;;;4.80;67.80;;;2.67;71.58;96207.28;4925259;29;20483;-68
2021/03/22 07:10:39;;;;;;;16.95;3.65;;;5.00;67.90;;;2.75;71.54;96215.25;4945480;28;20046;-68
2021/03/22 07:13:25;;;;;;;17.30;3.60;;;5.10;67.80;;;2.82;71.34;96205.94;4965593;28;20117;-66
2021/03/22 07:15:55;;;;;;;21.50;4.53;;;5.20;67.40;;;2.88;71.86;96213.16;4934447;28;20039;-66
2021/03/22 07:18:26;;;;;;;19.15;4.07;;;5.30;66.30;;;2.97;71.29;96212.34;4952602;28;20038;-67
2021/03/22 07:20:55;;;;;;;27.45;4.65;;;5.40;66.20;;;3.04;70.64;96213.41;4952035;28;20042;-66
2021/03/22 07:23:33;;;;;;;23.80;4.30;;;5.50;65.30;;;3.13;70.45;96223.91;4965779;28;20125;-67
2021/03/22 07:26:15;;;;;;;18.35;3.78;;;5.50;65.40;;;3.17;69.57;96220.06;4921111;28;20065;-63
2021/03/22 07:29:49;;;;;;;22.02;4.20;;;5.50;64.80;;;3.22;68.84;96228.28;4947938;29;20039;-68
2021/03/22 07:32:46;;;;;;;19.25;4.90;;;5.40;64.60;;;3.28;68.79;96223.34;4958388;28;20129;-68
2021/03/22 07:35:35;;;;;;;23.88;4.82;;;5.60;64.80;;;3.34;68.54;96221.97;4948699;28;20456;-67
2021/03/22 07:38:25;;;;;;;24.02;5.40;;;5.60;64.30;;;3.41;68.01;96232.63;4942066;29;20447;-67
2021/03/22 07:41:18;;;;;;;26.20;4.57;;;5.60;63.10;;;3.45;67.90;96240.00;4979744;28;20042;-65
2021/03/22 07:44:20;;;;;;;27.23;5.05;;;5.60;64.00;;;3.50;67.48;96237.78;4917221;29;20479;-67
2021/03/22 07:47:50;;;;;;;25.45;7.82;;;5.60;63.40;;;3.58;67.93;96237.91;4919103;28;20047;-67
2021/03/22 07:50:29;;;;;;;36.08;15.30;;;5.80;63.90;;;3.71;68.52;96234.16;4890201;29;20051;-68
2021/03/22 07:53:03;;;;;;;26.63;4.90;;;6.10;63.30;;;3.79;67.63;96236.84;4934433;29;20572;-68
2021/03/22 07:55:47;;;;;;;19.00;4.10;;;6.10;62.20;;;3.85;66.67;96237.13;4917063;29;20451;-66
2021/03/22 07:58:50;;;;;;;23.75;4.07;;;6.20;61.80;;;3.88;66.45;96238.63;4963726;28;20459;-67
2021/03/22 08:01:24;;;;;;;25.52;4.32;;;6.10;61.40;;;3.90;67.23;96247.09;4968758;28;20504;-67
2021/03/22 08:04:34;;;;;;;26.50;4.93;;;6.00;61.90;;;3.93;66.55;96244.19;4948694;29;20043;-66
2021/03/22 08:07:56;;;;;;;28.58;5.25;;;6.20;62.00;;;3.94;66.15;96251.03;4951281;28;20050;-67
2021/03/22 08:10:49;;;;;;;16.73;4.43;;;6.10;61.60;;;3.94;66.24;96256.25;4971417;28;20046;-67
2021/03/22 08:13:35;;;;;;;16.42;3.40;;;6.00;62.00;;;3.90;66.01;96257.50;4955760;28;20530;-69
2021/03/22 08:16:16;;;;;;;22.88;4.35;;;6.00;61.40;;;3.91;66.35;96253.94;4965282;28;20128;-68
2021/03/22 08:18:53;;;;;;;;;;;6.20;61.20;;;3.95;65.73;96252.69;4950060;28;20105;-68
2021/03/22 08:21:36;;;;;;;22.80;3.40;;;6.30;60.90;;;4.03;66.46;96255.38;4940431;28;19921;-66
2021/03/22 08:24:25;;;;;;;22.13;3.83;;;6.40;60.90;;;4.08;65.31;96258.38;4955156;28;20034;-66
2021/03/22 08:26:58;;;;;;;22.63;4.68;;;6.50;59.30;;;4.17;65.84;96262.72;4936593;29;20086;-66
2021/03/22 08:29:31;;;;;;;18.80;3.90;;;6.60;59.50;;;4.28;65.84;96259.88;4928920;28;20042;-67
2021/03/22 08:32:37;;;;;;;22.27;3.72;;;6.80;59.10;;;4.39;64.48;96264.09;4939834;28;20041;-68
2021/03/22 08:35:18;;;;;;;18.67;3.90;;;6.90;58.40;;;4.39;64.93;96265.88;4951949;29;20035;-68
2021/03/22 08:37:49;;;;;;;24.95;4.50;;;6.70;58.50;;;4.43;65.24;96268.03;4933412;28;20023;-68
2021/03/22 08:40:30;;;;;;;24.42;4.57;;;6.60;58.00;;;4.45;64.48;96270.50;4939624;28;20106;-63
2021/03/22 08:42:59;;;;;;;18.70;4.10;;;6.60;59.00;;;4.54;65.04;96272.22;4943344;28;20040;-64
2021/03/22 08:45:50;;;;;;;22.55;4.18;;;6.70;58.10;;;4.68;63.31;96266.50;4923933;28;20475;-65
2021/03/22 08:48:26;;;;;;;22.58;5.25;;;7.10;57.00;;;4.79;63.37;96268.06;4939794;28;20520;-66
2021/03/22 08:50:52;;;;;;;22.10;4.05;;;7.20;57.00;;;5.00;64.85;96278.22;4923769;28;20422;-64
2021/03/22 08:53:20;;;;;;;20.98;3.70;;;7.70;55.80;;;5.23;64.29;96280.19;4935339;28;20065;-67
2021/03/22 08:55:51;;;;;;;19.25;3.75;;;8.10;54.60;;;5.44;63.72;96273.81;4973210;28;20030;-65
2021/03/22 08:58:34;;;;;;;21.63;3.95;;;8.20;53.80;;;5.64;61.60;96279.63;4958060;28;20050;-65
2021/03/22 09:01:09;;;;;;;22.15;3.90;;;8.30;52.70;;;5.76;61.37;96283.63;4973062;28;20038;-68
2021/03/22 09:03:42;;;;;;;20.20;3.47;;;8.40;52.40;;;5.86;61.62;96279.09;4954472;28;20075;-68
2021/03/22 09:06:25;;;;;;;23.40;3.92;;;8.50;53.00;;;6.00;61.24;96286.41;4936624;29;20047;-65
2021/03/22 09:09:16;;;;;;;17.15;3.67;;;8.60;52.20;;;6.13;59.84;96284.19;4952905;29;20039;-66
2021/03/22 09:11:47;;;;;;;21.30;5.40;;;8.80;51.50;;;6.20;61.75;96286.16;4936589;28;20086;-67
2021/03/22 09:14:16;;;;;;;16.35;3.63;;;8.50;51.50;;;6.20;61.19;96291.41;4937305;29;20507;-66
2021/03/22 09:16:47;;;;;;;21.20;4.78;;;8.40;51.60;;;6.11;59.87;96290.53;4967056;28;20132;-66
2021/03/22 09:19:13;;;;;;;;;;;8.10;52.40;;;6.05;58.46;96299.81;4934810;28;20042;-68
2021/03/22 09:21:59;;;;;;;16.25;3.60;;;8.10;52.40;;;5.97;58.34;96297.16;4961020;28;19922;-65
2021/03/22 09:24:41;;;;;;;22.10;3.63;;;8.10;52.30;;;5.95;59.63;96306.13;4956669;28;20431;-66
2021/03/22 09:27:16;;;;;;;20.80;3.72;;;8.20;52.20;;;5.89;59.01;96302.31;4970132;28;20047;-66
2021/03/22 09:29:43;;;;;;;13.60;3.72;;;8.00;52.60;;;5.82;61.01;96301.28;4972298;28;20069;-65
2021/03/22 09:32:34;;;;;;;19.50;3.78;;;7.90;53.00;;;5.86;59.17;96305.22;4933752;29;20059;-67
2021/03/22 09:35:13;;;;;;;14.90;3.38;;;8.20;52.50;;;5.89;59.12;96310.16;4953481;29;20040;-66
2021/03/22 09:38:04;;;;;;;23.95;4.28;;;8.20;52.10;;;5.91;58.24;96318.69;4951067;28;20043;-67
2021/03/22 09:40:30;;;;;;;21.83;6.90;;;8.20;52.30;;;5.86;61.57;96310.44;4967591;28;20043;-64
2021/03/22 09:43:18;;;;;;;26.25;8.70;;;7.90;53.20;;;5.93;59.42;96311.50;4987200;28;20141;-67
2021/03/22 09:45:53;;;;;;;21.38;4.00;;;8.20;53.20;;;5.84;59.18;96313.19;4971538;28;20031;-65
2021/03/22 09:48:25;;;;;;;19.58;4.22;;;7.90;52.70;;;5.73;60.94;96307.44;4970177;28;20043;-64
2021/03/22 09:51:03;;;;;;;26.02;7.25;;;7.60;54.40;;;5.64;58.33;96310.94;4953878;28;20151;-65
2021/03/22 09:53:53;;;;;;;18.27;4.53;;;7.50;53.90;;;5.39;59.36;96318.59;4960200;28;20475;-63
2021/03/22 09:56:34;;;;;;;21.10;4.63;;;6.90;56.10;;;5.18;60.41;96320.69;4920019;29;20039;-66
2021/03/22 09:59:26;;;;;;;;;;;6.70;57.40;;;4.93;60.75;96323.09;4952405;28;20042;-67
2021/03/22 10:01:53;;;;;;;19.92;3.88;;;6.40;58.80;;;4.76;61.44;96323.91;4950868;28;19922;-70
2021/03/22 10:04:34;;;;;;;19.02;4.28;;;6.20;60.30;;;4.55;62.39;96320.75;4952753;28;20038;-64
2021/03/22 10:07:17;;;;;;;24.67;4.13;;;6.00;62.10;;;4.42;63.34;96328.09;4938789;28;20073;-68
2021/03/22 10:09:44;;;;;;;20.08;4.55;;;5.90;62.40;;;4.33;62.69;96323.75;4935215;29;20039;-68
2021/03/22 10:12:14;;;;;;;17.77;3.97;;;6.00;62.60;;;4.21;63.67;96321.31;4935682;29;20070;-65
2021/03/22 10:14:43;;;;;;;21.50;4.45;;;6.00;62.90;;;4.10;63.43;96318.94;4953225;28;20035;-62
2021/03/22 10:17:21;;;;;;;19.48;3.97;;;5.70;63.30;;;4.03;64.53;96312.63;4935602;28;20038;-70
2021/03/22 10:19:47;;;;;;;26.83;6.30;;;5.80;63.80;;;3.96;64.11;96324.59;4941744;28;20042;-67
2021/03/22 10:22:19;;;;;;;22.92;4.82;;;5.60;65.60;;;3.92;65.55;96325.84;4938759;28;20031;-66
2021/03/22 10:25:06;;;;;;;18.33;4.05;;;5.70;65.60;;;3.88;66.26;96329.69;4920554;29;20039;-66
2021/03/22 10:27:34;;;;;;;20.10;4.57;;;5.70;65.70;;;3.84;65.35;96317.91;4933917;28;20042;-66
2021/03/22 10:30:06;;;;;;;26.35;4.50;;;5.60;65.60;;;3.88;66.09;96327.91;4954806;28;20039;-67
2021/03/22 10:32:32;;;;;;;21.50;4.00;;;5.80;65.60;;;3.95;65.22;96333.34;4963712;28;20075;-67
2021/03/22 10:35:14;;;;;;;26.25;4.38;;;6.00;65.00;;;4.06;66.48;96333.16;4935272;29;20074;-67
2021/03/22 10:37:44;;;;;;;22.90;4.38;;;6.20;64.00;;;4.17;65.46;96321.75;4949044;28;20067;-68
2021/03/22 10:40:38;;;;;;;23.27;3.85;;;6.50;63.00;;;4.23;64.53;96322.00;4934909;28;20066;-66
2021/03/22 10:43:05;;;;;;;17.75;4.10;;;6.20;61.20;;;4.36;64.91;96326.06;4936740;29;20118;-68
2021/03/22 10:45:40;;;;;;;16.88;4.00;;;6.60;61.20;;;4.53;64.26;96317.47;4934950;29;20411;-67
2021/03/22 10:48:28;;;;;;;21.88;4.40;;;6.90;59.90;;;4.76;64.44;96321.31;4952599;28;20462;-69
2021/03/22 10:51:09;;;;;;;16.63;3.78;;;7.20;58.90;;;5.06;62.64;96312.31;4954550;28;20039;-68
2021/03/22 10:54:02;;;;;;;20.00;3.58;;;7.70;57.00;;;5.34;62.08;96315.63;5095673;27;20370;-67
2021/03/22 10:56:40;;;;;;;15.98;3.95;;;7.80;56.10;;;5.67;61.68;96308.06;5025532;28;20459;-69